Time;durP1;ratioP1;P1;durP2;ratioP2;P2;SDS_P1;SDS_P2;PMS_P1;PMS_P2;Temp;Humidity;BMP_temperature;BMP_pressure;BME280_temperature;BME280_humidity;BME280_pressure;Samples;Min_cycle;Max_cycle;Signal;HPM_P1;HPM_P2
2022/01/23 00:01:24;;;;;;;8.00;7.17;;;;;;;2.05;100.00;97815.84;5032464;28;104436;-55
2022/01/23 00:03:51;;;;;;;8.43;7.67;;;;;;;2.05;100.00;97812.38;5029762;28;104785;-54
2022/01/23 00:06:21;;;;;;;8.67;7.50;;;;;;;2.08;100.00;97818.13;5029267;28;103898;-51
2022/01/23 00:08:49;;;;;;;9.03;8.13;;;;;;;2.13;100.00;97807.16;5029581;28;101752;-55
2022/01/23 00:11:26;;;;;;;8.80;8.00;;;;;;;2.03;100.00;97814.34;5029515;28;105417;-54
2022/01/23 00:20:14;;;;;;;9.83;8.87;;;;;;;1.93;100.00;97817.13;5029503;28;105007;-55
2022/01/23 00:22:45;;;;;;;10.27;9.13;;;;;;;1.98;100.00;97819.25;5028775;28;105141;-55
2022/01/23 00:30:49;;;;;;;10.00;9.00;;;;;;;1.95;100.00;97816.94;5029022;28;101897;-53
2022/01/23 00:33:18;;;;;;;12.37;11.07;;;;;;;1.90;100.00;97812.19;5029258;28;105219;-51
2022/01/23 00:35:47;;;;;;;13.17;11.60;;;;;;;1.83;100.00;97810.38;5028872;28;102440;-51
2022/01/23 00:38:30;;;;;;;11.87;10.67;;;;;;;1.82;100.00;97811.38;5028477;28;101974;-51
2022/01/23 00:40:57;;;;;;;12.80;11.20;;;;;;;1.87;100.00;97801.22;5028267;28;105075;-56
2022/01/23 00:43:37;;;;;;;12.53;11.23;;;;;;;1.91;100.00;97799.91;5027517;28;105883;-53
2022/01/23 00:46:21;;;;;;;13.90;12.07;;;;;;;1.89;100.00;97813.19;5027837;28;103218;-51
2022/01/23 00:49:13;;;;;;;13.00;11.57;;;;;;;2.04;100.00;97802.88;5032185;28;102042;-56
2022/01/23 00:51:41;;;;;;;12.13;10.73;;;;;;;1.93;100.00;97806.66;5027933;28;102149;-52
2022/01/23 00:54:12;;;;;;;12.87;11.17;;;;;;;2.05;100.00;97807.97;5028349;28;105492;-56
2022/01/23 00:56:39;;;;;;;11.90;10.47;;;;;;;2.08;100.00;97809.44;5027514;28;105949;-53
2022/01/23 00:59:41;;;;;;;12.57;11.27;;;;;;;2.11;100.00;97812.56;5028125;28;102117;-52
2022/01/23 01:02:08;;;;;;;12.57;10.83;;;;;;;2.14;100.00;97814.03;5027801;28;105595;-52
2022/01/23 01:04:35;;;;;;;12.03;10.33;;;;;;;2.11;100.00;97823.03;5027308;28;105204;-53
2022/01/23 01:07:02;;;;;;;12.63;11.33;;;;;;;2.06;100.00;97814.00;5027666;28;101839;-53
2022/01/23 01:09:47;;;;;;;12.87;11.30;;;;;;;2.04;100.00;97816.00;5028036;28;104992;-55
2022/01/23 01:12:47;;;;;;;13.87;12.03;;;;;;;2.07;100.00;97807.81;5030264;28;106158;-52
2022/01/23 01:15:31;;;;;;;14.17;11.60;;;;;;;1.98;100.00;97822.69;5028097;28;103887;-56
2022/01/23 01:32:17;;;;;;;15.07;13.33;;;;;;;1.85;100.00;97822.34;5027493;28;105371;-55
2022/01/23 01:34:50;;;;;;;18.83;14.57;;;;;;;1.85;100.00;97809.25;5026875;28;106065;-53
2022/01/23 01:37:51;;;;;;;15.03;13.13;;;;;;;1.91;100.00;97821.69;5031093;28;101796;-54
2022/01/23 01:40:19;;;;;;;15.23;12.93;;;;;;;1.86;100.00;97810.88;5029506;27;103859;-51
2022/01/23 01:43:16;;;;;;;15.10;12.90;;;;;;;1.88;100.00;97818.59;5031021;28;102425;-51
2022/01/23 01:45:44;;;;;;;15.60;12.33;;;;;;;1.94;100.00;97812.69;5030209;28;105251;-54
2022/01/23 01:48:24;;;;;;;16.63;12.60;;;;;;;1.93;100.00;97822.38;5030571;28;105521;-52
2022/01/23 01:50:58;;;;;;;15.33;11.37;;;;;;;2.04;100.00;97824.69;5031021;28;101920;-52
2022/01/23 01:53:26;;;;;;;16.13;12.73;;;;;;;2.05;100.00;97815.84;5032338;28;102818;-53
2022/01/23 01:55:57;;;;;;;16.53;13.23;;;;;;;2.03;100.00;97819.59;5045785;27;105592;-54
2022/01/23 02:11:05;;;;;;;16.00;11.47;;;;;;;2.09;100.00;97811.06;5029747;28;105525;-55
2022/01/23 02:13:36;;;;;;;15.13;12.00;;;;;;;2.11;100.00;97809.09;5030663;28;101864;-52
2022/01/23 02:25:27;;;;;;;13.83;10.93;;;;;;;2.15;100.00;97815.66;5013260;28;105823;-54
2022/01/23 02:51:13;;;;;;;9.47;7.80;;;;;;;2.23;100.00;97808.63;4975026;28;105312;-56
2022/01/23 02:54:05;;;;;;;9.17;7.97;;;;;;;2.28;100.00;97815.97;4959056;28;105600;-52
2022/01/23 02:56:36;;;;;;;9.83;8.63;;;;;;;2.31;100.00;97820.91;4999352;28;106159;-52
2022/01/23 02:59:27;;;;;;;11.27;9.10;;;;;;;2.30;100.00;97819.28;5030857;28;102053;-53
2022/01/23 03:02:07;;;;;;;9.17;7.93;;;;;;;2.35;100.00;97809.13;5030629;28;103663;-52
2022/01/23 03:04:59;;;;;;;10.43;8.53;;;;;;;2.20;100.00;97805.50;5028411;28;102324;-51
2022/01/23 03:10:57;;;;;;;9.90;8.77;;;;;;;2.09;100.00;97804.00;5051467;27;101526;-55
2022/01/23 03:13:43;;;;;;;11.03;9.47;;;;;;;2.21;100.00;97809.75;5045188;27;105339;-54
2022/01/23 03:24:02;;;;;;;13.13;10.23;;;;;;;2.16;100.00;97812.06;5046014;27;101780;-51
2022/01/23 03:24:47;;;;;;;14.97;11.97;;;;;;;2.22;100.00;97811.41;5018028;27;102005;-50
2022/01/23 03:27:52;;;;;;;12.23;10.43;;;;;;;2.27;100.00;97814.34;5045126;27;104444;-55
2022/01/23 03:30:21;;;;;;;23.23;16.87;;;;;;;2.26;100.00;97817.97;5033131;27;102788;-56
2022/01/23 03:32:50;;;;;;;17.97;14.40;;;;;;;2.28;100.00;97813.34;5049711;27;101818;-56
2022/01/23 03:35:19;;;;;;;17.70;13.10;;;;;;;2.32;100.00;97810.25;5045088;27;103243;-53
2022/01/23 03:37:48;;;;;;;17.27;13.50;;;;;;;2.33;100.00;97804.03;5027612;27;101832;-55
2022/01/23 03:40:15;;;;;;;18.30;13.97;;;;;;;2.33;100.00;97814.53;5028414;27;105256;-54
2022/01/23 03:42:56;;;;;;;15.77;11.70;;;;;;;2.35;100.00;97806.50;5043967;27;104142;-55
2022/01/23 03:45:48;;;;;;;14.20;11.13;;;;;;;2.30;100.00;97806.16;5044108;27;101831;-55
2022/01/23 03:51:15;;;;;;;11.10;9.67;;;;;;;2.33;100.00;97811.06;5043917;27;105023;-55
2022/01/23 03:53:45;;;;;;;10.57;9.47;;;;;;;2.30;100.00;97801.72;5045398;27;102267;-52
2022/01/23 03:56:14;;;;;;;11.93;9.63;;;;;;;2.32;100.00;97817.31;5048086;27;106614;-50
2022/01/23 03:58:44;;;;;;;11.27;9.00;;;;;;;2.32;100.00;97809.44;5045041;27;101973;-53
2022/01/23 04:01:17;;;;;;;10.57;9.00;;;;;;;2.28;100.00;97811.56;5045523;27;104916;-53
2022/01/23 04:03:45;;;;;;;11.73;9.60;;;;;;;2.28;100.00;97811.56;5044222;27;104752;-54
2022/01/23 04:06:13;;;;;;;10.03;9.03;;;;;;;2.28;100.00;97815.97;5044647;27;102303;-56
2022/01/23 04:08:43;;;;;;;10.00;8.73;;;;;;;2.31;100.00;97826.16;5024642;28;102872;-50
2022/01/23 04:11:16;;;;;;;10.47;8.70;;;;;;;2.31;100.00;97826.16;5024541;28;104060;-51
2022/01/23 04:13:49;;;;;;;11.23;8.93;;;;;;;2.32;100.00;97827.81;5044780;27;102149;-51
2022/01/23 04:16:38;;;;;;;10.83;9.63;;;;;;;2.29;100.00;97828.16;5058537;27;104929;-54
2022/01/23 04:19:17;;;;;;;11.77;8.73;;;;;;;2.34;100.00;97836.31;5035844;27;105937;-52
2022/01/23 04:33:09;;;;;;;10.37;8.70;;;;;;;2.26;100.00;97821.41;5030888;28;104722;-52
2022/01/23 04:45:09;;;;;;;10.43;9.00;;;;;;;2.25;100.00;97817.13;5030933;28;102048;-53
2022/01/23 05:01:03;;;;;;;10.17;9.00;;;;;;;2.28;100.00;97821.22;5018101;27;102786;-51
2022/01/23 05:06:59;;;;;;;10.40;8.73;;;;;;;2.29;100.00;97843.91;5031049;28;101915;-55
2022/01/23 05:09:58;;;;;;;11.13;9.10;;;;;;;2.29;100.00;97852.56;5033921;28;103792;-56
2022/01/23 05:12:53;;;;;;;10.53;8.97;;;;;;;2.26;100.00;97854.72;5030960;28;101990;-52
2022/01/23 05:15:21;;;;;;;11.00;9.30;;;;;;;2.25;100.00;97855.69;5030419;28;105816;-52
2022/01/23 05:18:06;;;;;;;10.20;9.00;;;;;;;2.20;100.00;97853.53;5031433;27;102766;-54
2022/01/23 05:20:35;;;;;;;10.47;9.23;;;;;;;2.23;100.00;97852.41;5030428;28;102103;-55
2022/01/23 05:23:05;;;;;;;12.33;9.63;;;;;;;2.19;100.00;97843.22;5030719;28;105230;-54
2022/01/23 05:25:35;;;;;;;10.57;9.03;;;;;;;2.17;100.00;97829.44;5029744;28;104072;-56
2022/01/23 05:28:15;;;;;;;10.27;8.97;;;;;;;2.06;100.00;97816.63;5030257;28;101824;-53
2022/01/23 05:30:43;;;;;;;11.10;9.90;;;;;;;2.05;100.00;97807.13;5030063;28;105218;-55
2022/01/23 05:33:12;;;;;;;10.70;8.83;;;;;;;2.08;100.00;97804.19;5031461;27;101840;-52
2022/01/23 05:35:40;;;;;;;12.63;10.10;;;;;;;2.11;100.00;97807.31;5030532;28;105169;-53
2022/01/23 05:38:58;;;;;;;11.73;10.53;;;;;;;2.08;100.00;97805.00;5028594;28;105205;-55
2022/01/23 05:41:27;;;;;;;11.93;9.77;;;;;;;2.12;100.00;97801.06;5028999;28;101788;-55
2022/01/23 05:43:55;;;;;;;10.50;9.27;;;;;;;2.21;100.00;97812.38;5029974;28;104009;-55
2022/01/23 05:46:21;;;;;;;12.57;9.90;;;;;;;2.19;100.00;97815.16;5029416;28;105487;-56
2022/01/23 05:50:00;;;;;;;12.43;9.43;;;;;;;2.09;100.00;97809.25;5021180;28;101892;-52
2022/01/23 05:52:48;;;;;;;11.77;9.57;;;;;;;2.29;100.00;97812.41;5029889;28;104454;-53
2022/01/23 05:55:39;;;;;;;14.00;10.47;;;;;;;2.22;100.00;97827.13;5033013;28;105362;-55
2022/01/23 06:01:55;;;;;;;12.00;10.37;;;;;;;2.24;100.00;97843.56;5029206;28;105541;-54
2022/01/23 06:04:28;;;;;;;11.50;9.80;;;;;;;2.25;100.00;97846.00;5028453;28;101919;-56
2022/01/23 06:07:03;;;;;;;14.03;11.10;;;;;;;2.22;100.00;97832.38;5029783;28;103564;-51
2022/01/23 06:09:32;;;;;;;13.40;11.47;;;;;;;2.18;100.00;97825.84;5024988;28;105338;-54
2022/01/23 06:12:01;;;;;;;12.33;10.20;;;;;;;2.22;100.00;97827.13;5028577;28;101924;-54
2022/01/23 06:14:31;;;;;;;13.33;10.30;;;;;;;2.17;100.00;97827.63;5028658;28;105172;-54
2022/01/23 06:16:59;;;;;;;12.50;10.83;;;;;;;2.25;100.00;97832.88;5028017;28;105386;-55
2022/01/23 06:19:56;;;;;;;13.77;10.93;;;;;;;2.20;100.00;97837.00;5030543;28;101681;-55
2022/01/23 06:22:45;;;;;;;13.90;10.40;;;;;;;2.16;100.00;97844.38;5026239;28;103306;-54
2022/01/23 06:25:32;;;;;;;11.77;10.10;;;;;;;2.28;100.00;97848.31;5007002;28;101654;-51
2022/01/23 06:28:57;;;;;;;12.50;10.70;;;;;;;2.21;100.00;97847.34;5020598;28;103760;-53
2022/01/23 06:31:25;;;;;;;13.00;10.43;;;;;;;2.23;100.00;97852.41;5027665;28;104985;-50
2022/01/23 06:33:52;;;;;;;13.30;10.97;;;;;;;2.17;100.00;97847.81;5028518;28;101950;-54
2022/01/23 06:36:18;;;;;;;12.87;10.87;;;;;;;2.22;100.00;97854.22;5028561;28;104788;-53
2022/01/23 06:38:51;;;;;;;13.63;10.10;;;;;;;2.26;100.00;97866.03;5027721;28;105723;-54
2022/01/23 06:41:24;;;;;;;13.30;11.03;;;;;;;2.31;100.00;97858.50;5028462;28;102063;-55
2022/01/23 06:44:05;;;;;;;14.50;11.33;;;;;;;2.27;100.00;97857.19;5030766;28;104973;-55
2022/01/23 06:46:36;;;;;;;14.90;11.77;;;;;;;2.27;100.00;97864.22;5027975;28;101872;-56
2022/01/23 06:49:11;;;;;;;13.60;10.53;;;;;;;2.29;100.00;97870.94;5028011;28;105251;-53
2022/01/23 06:51:42;;;;;;;12.30;10.50;;;;;;;2.29;100.00;97870.16;5027332;28;105464;-55
2022/01/23 06:54:09;;;;;;;12.80;11.03;;;;;;;2.30;100.00;97872.59;5028301;28;101850;-55
2022/01/23 06:56:39;;;;;;;12.77;11.20;;;;;;;2.28;100.00;97873.72;5028344;28;103622;-55
2022/01/23 06:59:11;;;;;;;13.97;11.77;;;;;;;2.24;100.00;97885.56;5027720;28;105449;-53
2022/01/23 07:01:42;;;;;;;13.57;11.53;;;;;;;2.29;100.00;97888.53;5027963;28;103091;-52
2022/01/23 07:04:27;;;;;;;16.73;12.73;;;;;;;2.22;100.00;97882.25;5029634;28;101658;-53
2022/01/23 07:07:13;;;;;;;22.47;16.33;;;;;;;2.22;100.00;97879.63;5032857;28;102221;-54
2022/01/23 07:10:16;;;;;;;22.73;15.37;;;;;;;2.17;100.00;97881.91;5005806;28;103582;-55
2022/01/23 07:13:17;;;;;;;16.03;12.13;;;;;;;2.12;100.00;97874.53;5017013;27;103518;-56
2022/01/23 07:16:06;;;;;;;14.47;11.63;;;;;;;2.08;100.00;97864.53;5028105;28;101903;-54
2022/01/23 07:19:24;;;;;;;15.20;11.30;;;;;;;2.24;100.00;97877.69;5029916;28;101700;-55
2022/01/23 07:22:00;;;;;;;14.43;11.53;;;;;;;2.24;100.00;97888.97;5027572;28;104926;-54
2022/01/23 07:24:28;;;;;;;13.73;11.07;;;;;;;2.30;100.00;97884.91;5027768;28;101957;-55
2022/01/23 07:26:55;;;;;;;13.30;11.43;;;;;;;2.12;100.00;97884.19;5027931;28;103769;-58
2022/01/23 07:29:24;;;;;;;13.37;11.53;;;;;;;2.15;100.00;97892.59;5027280;28;104995;-58
2022/01/23 07:31:59;;;;;;;17.03;15.20;;;;;;;2.17;100.00;97900.28;5031258;28;101938;-58
2022/01/23 07:34:28;;;;;;;16.60;13.73;;;;;;;2.26;100.00;97907.19;5027095;28;105191;-58
2022/01/23 07:36:56;;;;;;;14.30;12.50;;;;;;;2.18;100.00;97912.44;5027737;28;101909;-58
2022/01/23 07:39:49;;;;;;;15.50;13.40;;;;;;;2.16;100.00;97909.97;5019272;27;102919;-58
2022/01/23 07:42:39;;;;;;;14.03;11.43;;;;;;;2.21;100.00;97919.97;5026951;28;105210;-58
2022/01/23 07:45:30;;;;;;;14.70;11.70;;;;;;;2.18;100.00;97922.94;5004488;28;101917;-58
2022/01/23 07:48:46;;;;;;;16.30;12.87;;;;;;;2.15;100.00;97924.09;5012407;28;105170;-58
2022/01/23 07:51:43;;;;;;;15.13;12.30;;;;;;;2.30;100.00;97934.78;5006443;28;105472;-58
2022/01/23 07:54:25;;;;;;;14.57;12.37;;;;;;;2.31;100.00;97939.88;5010732;28;101857;-58
2022/01/23 07:57:09;;;;;;;16.37;12.90;;;;;;;2.31;100.00;97928.53;5009349;28;105753;-58
2022/01/23 07:59:59;;;;;;;17.07;13.57;;;;;;;2.29;100.00;97928.69;5013838;28;101964;-58
2022/01/23 08:02:47;;;;;;;19.23;14.60;;;;;;;2.31;100.00;97937.25;5029484;28;102072;-58
2022/01/23 08:05:18;;;;;;;16.83;13.67;;;;;;;2.45;100.00;97936.59;5008544;28;102473;-58
2022/01/23 08:08:08;;;;;;;16.07;14.13;;;;;;;2.50;100.00;97936.09;5010658;28;102134;-58
2022/01/23 08:10:46;;;;;;;16.47;12.97;;;;;;;2.43;100.00;97945.63;5009881;28;105409;-58
2022/01/23 08:13:12;;;;;;;15.70;13.47;;;;;;;2.46;100.00;97945.31;5017628;28;105811;-58
2022/01/23 08:15:40;;;;;;;17.73;14.37;;;;;;;2.62;100.00;97953.19;5010517;28;101870;-58
2022/01/23 08:18:15;;;;;;;18.53;14.83;;;;;;;2.59;100.00;97956.13;5013392;28;105974;-58
2022/01/23 08:20:43;;;;;;;18.07;14.10;;;;;;;2.57;100.00;97961.53;5016085;28;101831;-58
2022/01/23 08:23:11;;;;;;;19.67;14.03;;;;;;;2.61;100.00;97967.28;5010320;28;105296;-58
2022/01/23 08:25:38;;;;;;;21.97;15.77;;;;;;;2.56;100.00;97966.97;5019190;28;103197;-58
2022/01/23 08:28:08;;;;;;;18.40;15.50;;;;;;;2.45;100.00;97968.09;5030204;28;101861;-58
2022/01/23 08:30:37;;;;;;;18.70;14.70;;;;;;;2.49;100.00;97987.81;5030238;28;105105;-58
2022/01/23 08:33:04;;;;;;;19.40;14.43;;;;;;;2.38;100.00;97976.78;5029656;28;105789;-58
2022/01/23 08:35:32;;;;;;;18.57;15.37;;;;;;;2.51;100.00;97979.78;5030187;28;102128;-58
2022/01/23 08:38:00;;;;;;;18.53;16.00;;;;;;;2.54;100.00;97980.28;5030124;28;105051;-58
2022/01/23 08:40:47;;;;;;;21.87;16.50;;;;;;;2.51;100.00;97977.16;5032871;28;105300;-59
2022/01/23 08:43:15;;;;;;;18.97;15.10;;;;;;;2.52;100.00;97981.41;5029973;28;105395;-58
2022/01/23 08:45:42;;;;;;;17.80;14.30;;;;;;;2.60;100.00;97986.66;5029491;28;105356;-58
2022/01/23 08:48:29;;;;;;;19.60;14.47;;;;;;;2.42;100.00;97981.56;5031491;27;101792;-58
2022/01/23 08:50:58;;;;;;;17.37;14.93;;;;;;;2.67;100.00;97975.34;5030013;28;105824;-58
2022/01/23 08:53:27;;;;;;;20.83;14.93;;;;;;;2.66;100.00;97957.97;5029498;28;104721;-58
2022/01/23 08:55:55;;;;;;;20.20;16.23;;;;;;;2.57;100.00;97971.25;5029692;28;102108;-59
2022/01/23 08:58:27;;;;;;;21.83;15.63;;;;;;;2.50;100.00;97962.34;5029983;28;105707;-57
2022/01/23 09:00:54;;;;;;;21.00;16.07;;;;;;;2.59;100.00;97975.34;5030078;28;104126;-56
2022/01/23 09:03:21;;;;;;;22.57;16.83;;;;;;;2.69;100.00;97983.06;5033002;28;101941;-52
2022/01/23 09:05:48;;;;;;;25.17;18.43;;;;;;;2.76;100.00;97968.28;5028738;28;105311;-57
2022/01/23 09:08:29;;;;;;;23.20;18.13;;;;;;;2.65;100.00;97968.63;5029197;27;102030;-57
2022/01/23 09:11:25;;;;;;;24.67;18.57;;;;;;;2.82;100.00;97965.00;5029319;28;105229;-54
2022/01/23 09:14:06;;;;;;;21.27;17.43;;;;;;;2.62;100.00;97977.63;5028981;28;106390;-55
2022/01/23 09:16:34;;;;;;;20.93;16.63;;;;;;;2.74;100.00;97971.06;5029399;28;101982;-53
2022/01/23 09:19:06;;;;;;;22.30;17.30;;;;;;;2.70;100.00;97953.19;5029434;28;103828;-57
2022/01/23 09:21:33;;;;;;;21.67;17.00;;;;;;;2.88;100.00;97952.06;5029095;28;105895;-56
2022/01/23 09:24:02;;;;;;;21.20;16.83;;;;;;;2.86;100.00;97955.81;5029894;28;102445;-56
2022/01/23 09:26:30;;;;;;;22.20;17.57;;;;;;;2.77;100.00;97952.38;5031942;28;104968;-54
2022/01/23 09:29:13;;;;;;;19.77;15.07;;;;;;;2.65;100.00;97952.84;5029097;28;101974;-53
2022/01/23 09:31:48;;;;;;;19.40;15.93;;;;;;;2.67;100.00;97943.03;5029108;28;103549;-56
2022/01/23 09:34:15;;;;;;;21.67;15.70;;;;;;;2.92;100.00;97944.66;5028902;28;105732;-56
2022/01/23 09:36:43;;;;;;;20.27;15.83;;;;;;;2.94;100.00;97947.94;5053369;27;101764;-57
2022/01/23 09:39:20;;;;;;;20.63;15.80;;;;;;;2.90;100.00;97947.44;5012243;28;105243;-55
2022/01/23 09:42:00;;;;;;;19.50;16.23;;;;;;;2.96;100.00;97953.84;5028843;28;105291;-56
2022/01/23 09:44:28;;;;;;;19.90;14.93;;;;;;;2.93;100.00;97956.81;5029053;28;101835;-57
2022/01/23 09:46:57;;;;;;;20.87;16.57;;;;;;;2.95;100.00;97957.47;5029140;28;105199;-56
2022/01/23 09:49:35;;;;;;;20.03;15.43;;;;;;;2.91;100.00;97967.50;5031701;28;105259;-56
2022/01/23 09:52:05;;;;;;;19.47;15.77;;;;;;;3.07;100.00;97961.41;5029223;28;104771;-52
2022/01/23 09:54:35;;;;;;;19.87;15.23;;;;;;;3.06;100.00;97959.78;5016407;28;105356;-57
2022/01/23 09:57:05;;;;;;;19.73;15.13;;;;;;;3.18;100.00;97964.50;5029103;28;101910;-54
2022/01/23 09:59:58;;;;;;;19.60;15.27;;;;;;;3.14;100.00;97963.22;5029489;28;102344;-53
2022/01/23 10:02:25;;;;;;;20.63;16.30;;;;;;;3.26;100.00;97968.94;5029657;28;103228;-58
2022/01/23 10:04:52;;;;;;;20.50;14.83;;;;;;;3.30;100.00;97957.94;5028820;28;101977;-51
2022/01/23 10:07:54;;;;;;;20.53;15.37;;;;;;;3.23;100.00;97953.50;5028730;28;105242;-54
2022/01/23 10:10:27;;;;;;;20.10;15.07;;;;;;;3.39;100.00;97956.91;5031107;28;105999;-56
2022/01/23 10:13:00;;;;;;;19.60;14.90;;;;;;;3.46;100.00;97957.06;5028764;28;104983;-58
2022/01/23 10:15:31;;;;;;;18.63;15.10;;;;;;;3.46;100.00;97955.28;5022609;28;104712;-54
2022/01/23 10:18:09;;;;;;;19.37;14.57;;;;;;;3.41;100.00;97946.22;5027977;28;102013;-57
2022/01/23 10:20:37;;;;;;;19.97;15.10;;;;;;;3.50;100.00;97937.34;5028722;28;104265;-56
2022/01/23 10:23:04;;;;;;;17.73;14.10;;;;;;;3.60;100.00;97935.34;5029316;28;103135;-54
2022/01/23 10:25:35;;;;;;;18.40;14.40;;;;;;;3.72;100.00;97937.41;5028527;28;101848;-57
2022/01/23 10:28:13;;;;;;;18.97;15.57;;;;;;;3.74;100.00;97930.19;5027889;28;105109;-53
2022/01/23 10:30:45;;;;;;;19.43;14.20;;;;;;;3.65;100.00;97931.22;5027373;28;106099;-57
2022/01/23 10:33:17;;;;;;;19.13;14.43;;;;;;;3.64;100.00;97924.31;5031403;28;102113;-55
2022/01/23 10:36:02;;;;;;;17.17;14.40;;;;;;;3.69;100.00;97918.53;5028076;28;105287;-57
2022/01/23 10:38:54;;;;;;;16.37;12.57;;;;;;;3.68;100.00;97916.91;5027937;28;101840;-56
2022/01/23 10:41:43;;;;;;;17.20;14.07;;;;;;;3.79;100.00;97917.34;5028490;28;105156;-56
2022/01/23 10:49:58;;;;;;;21.40;14.90;;;;;;;4.10;100.00;97917.38;5021773;28;106725;-57
2022/01/23 10:52:28;;;;;;;18.30;14.07;;;;;;;4.15;100.00;97918.47;5027458;28;103722;-56
2022/01/23 10:54:56;;;;;;;19.63;16.30;;;;;;;4.29;100.00;97922.19;5028976;28;101989;-56
2022/01/23 10:57:25;;;;;;;21.67;16.10;;;;;;;4.49;100.00;97918.09;5031039;28;105479;-57
2022/01/23 10:59:54;;;;;;;21.83;16.70;;;;;;;4.72;100.00;97917.13;5027418;28;101943;-54
2022/01/23 11:02:25;;;;;;;21.60;16.30;;;;;;;4.87;100.00;97925.06;5024901;28;106425;-51
2022/01/23 11:04:56;;;;;;;22.03;16.87;;;;;;;4.63;100.00;97915.53;5007326;28;105643;-54
2022/01/23 11:07:24;;;;;;;19.40;14.63;;;;;;;4.55;100.00;97917.41;5041304;27;101956;-52
2022/01/23 11:09:57;;;;;;;19.23;14.97;;;;;;;4.36;100.00;97926.56;5019598;28;106050;-55
2022/01/23 11:18:40;;;;;;;16.07;12.90;;;;;;;4.15;100.00;97912.41;5027419;28;106392;-58
2022/01/23 11:21:15;;;;;;;11.80;9.70;;;;;;;4.05;100.00;97909.16;4976100;28;105580;-58
2022/01/23 11:23:43;;;;;;;14.07;12.33;;;;;;;4.09;100.00;97916.53;5001706;28;105089;-59
2022/01/23 11:26:13;;;;;;;15.57;11.40;;;;;;;4.11;100.00;97913.72;5007263;28;105752;-58
2022/01/23 11:29:11;;;;;;;13.60;11.20;;;;;;;3.96;100.00;97913.66;5007800;28;101753;-59
2022/01/23 11:31:39;;;;;;;14.53;11.93;;;;;;;4.07;100.00;97915.06;5009686;28;105148;-60
2022/01/23 11:34:07;;;;;;;14.67;11.37;;;;;;;4.04;100.00;97915.44;5012032;28;102702;-55
2022/01/23 11:36:37;;;;;;;13.57;10.83;;;;;;;3.84;100.00;97911.56;5011147;28;102034;-54
2022/01/23 11:39:12;;;;;;;12.80;11.03;;;;;;;3.86;100.00;97912.22;5010991;28;105282;-54
2022/01/23 11:53:51;;;;;;;13.90;11.33;;;;;;;4.04;100.00;97904.91;4971917;28;105007;-58
2022/01/23 11:56:40;;;;;;;13.93;11.50;;;;;;;4.05;100.00;97898.63;5030560;28;105674;-55
2022/01/23 11:59:59;;;;;;;14.57;11.60;;;;;;;3.95;100.00;97905.91;5032858;28;103140;-58
2022/01/23 12:02:43;;;;;;;14.60;11.30;;;;;;;3.85;100.00;97897.41;5030654;28;105254;-59
2022/01/23 12:05:25;;;;;;;16.67;12.57;;;;;;;3.87;100.00;97892.81;5030282;28;106430;-60
2022/01/23 12:08:36;;;;;;;14.53;12.00;;;;;;;3.85;100.00;97894.78;5031236;28;102365;-77
2022/01/23 12:17:43;;;;;;;17.00;12.60;;;;;;;3.97;100.00;97870.53;4992035;28;102828;-60
2022/01/23 12:20:11;;;;;;;15.37;11.80;;;;;;;4.30;100.00;97868.50;4989962;28;104975;-61
2022/01/23 12:22:43;;;;;;;15.10;12.60;;;;;;;4.28;100.00;97875.78;4992014;28;101840;-58
2022/01/23 12:25:27;;;;;;;13.83;10.87;;;;;;;4.42;100.00;97867.94;4990546;28;104796;-55
2022/01/23 12:28:48;;;;;;;15.07;12.07;;;;;;;4.43;100.00;97869.56;4989954;28;105602;-59
2022/01/23 12:31:22;;;;;;;13.50;11.53;;;;;;;4.29;100.00;97870.34;4990341;28;101838;-59
2022/01/23 12:33:54;;;;;;;15.07;11.77;;;;;;;4.57;100.00;97867.97;4993083;28;105312;-59
2022/01/23 12:36:25;;;;;;;16.43;13.27;;;;;;;4.48;100.00;97867.22;4990370;28;101775;-57
2022/01/23 12:39:46;;;;;;;15.97;12.20;;;;;;;4.66;100.00;97866.94;4990319;28;105678;-58
2022/01/23 12:42:14;;;;;;;13.20;11.33;;;;;;;4.60;100.00;97870.28;4989412;28;105019;-58
2022/01/23 12:44:42;;;;;;;13.83;11.27;;;;;;;4.58;100.00;97873.06;4989336;28;101931;-58
2022/01/23 12:47:19;;;;;;;13.63;11.03;;;;;;;4.64;100.00;97882.09;4989974;28;105370;-58
2022/01/23 12:49:49;;;;;;;12.93;10.67;;;;;;;4.73;100.00;97875.75;4989587;28;105479;-57
2022/01/23 12:52:19;;;;;;;12.53;11.23;;;;;;;4.73;100.00;97870.47;4991386;28;101822;-58
2022/01/23 12:55:04;;;;;;;15.27;12.50;;;;;;;4.90;100.00;97877.25;4990037;28;105582;-58
2022/01/23 12:57:37;;;;;;;14.50;11.53;;;;;;;5.08;100.00;97864.56;4992969;28;105441;-58
2022/01/23 13:00:11;;;;;;;14.87;12.30;;;;;;;5.03;100.00;97869.56;4990136;28;104986;-58
2022/01/23 13:02:40;;;;;;;13.37;10.97;;;;;;;5.04;100.00;97872.03;4990841;28;103170;-58
2022/01/23 13:05:10;;;;;;;13.53;10.77;;;;;;;4.80;100.00;97866.16;4986197;28;101935;-58
2022/01/23 13:08:05;;;;;;;12.00;10.57;;;;;;;4.93;100.00;97876.91;4970011;28;105636;-58
2022/01/23 13:10:54;;;;;;;13.33;11.17;;;;;;;5.09;100.00;97872.31;4999873;28;106043;-58
2022/01/23 13:13:34;;;;;;;12.53;10.43;;;;;;;5.11;100.00;97877.38;5009373;28;101847;-58
2022/01/23 13:16:20;;;;;;;13.37;10.93;;;;;;;5.22;100.00;97876.94;5014349;28;105608;-58
2022/01/23 13:19:19;;;;;;;13.50;11.23;;;;;;;5.42;100.00;97872.78;5029307;28;104318;-58
2022/01/23 13:30:24;;;;;;;13.03;11.27;;;;;;;5.14;100.00;97858.56;5029449;28;105557;-58
2022/01/23 13:32:56;;;;;;;12.10;10.00;;;;;;;4.86;100.00;97857.53;5028844;28;105346;-58
2022/01/23 13:35:26;;;;;;;11.20;9.30;;;;;;;4.80;100.00;97852.97;5031058;27;103246;-58
2022/01/23 13:37:59;;;;;;;12.47;10.53;;;;;;;4.88;100.00;97850.25;5030440;28;104941;-58
2022/01/23 13:40:36;;;;;;;10.97;9.77;;;;;;;4.88;100.00;97850.25;5028869;28;105656;-58
2022/01/23 13:59:49;;;;;;;11.20;10.00;;;;;;;5.10;100.00;97846.75;5030170;28;105177;-58
2022/01/23 14:02:23;;;;;;;10.33;9.10;;;;;;;5.01;100.00;97853.09;5028238;28;105651;-59
2022/01/23 14:04:56;;;;;;;12.87;9.40;;;;;;;5.04;100.00;97848.28;5029907;28;101928;-58
2022/01/23 14:07:40;;;;;;;11.33;9.17;;;;;;;4.87;100.00;97846.81;5030126;28;104849;-58
2022/01/23 14:10:15;;;;;;;11.33;9.53;;;;;;;4.90;100.00;97840.34;5031831;28;105647;-58
2022/01/23 14:13:14;;;;;;;10.23;8.90;;;;;;;5.09;100.00;97839.84;5029769;28;105051;-59
2022/01/23 14:15:44;;;;;;;11.00;8.87;;;;;;;5.14;100.00;97845.38;5029165;28;106165;-61
2022/01/23 14:18:22;;;;;;;10.57;9.03;;;;;;;5.15;100.00;97852.28;5031452;28;101652;-59
2022/01/23 14:20:57;;;;;;;10.53;9.43;;;;;;;5.22;100.00;97853.19;5029557;28;105468;-58
2022/01/23 14:23:27;;;;;;;10.63;9.10;;;;;;;5.08;100.00;97852.19;5029034;28;104395;-59
2022/01/23 14:26:03;;;;;;;12.53;9.30;;;;;;;5.05;100.00;97857.00;5030086;28;101927;-83
2022/01/23 14:28:50;;;;;;;11.80;9.93;;;;;;;5.05;100.00;97847.28;5031194;28;102365;-59
2022/01/23 14:31:21;;;;;;;12.77;10.57;;;;;;;4.97;100.00;97843.91;5008804;28;105491;-58
2022/01/23 14:33:51;;;;;;;11.43;9.53;;;;;;;4.95;100.00;97857.28;5011751;28;101753;-59
2022/01/23 14:36:27;;;;;;;12.80;9.97;;;;;;;5.00;100.00;97857.56;5008777;28;105156;-59
2022/01/23 14:39:01;;;;;;;12.90;10.53;;;;;;;5.02;100.00;97854.75;5013324;28;102189;-59
2022/01/23 14:41:45;;;;;;;11.57;9.87;;;;;;;5.13;100.00;97862.22;5028537;28;105207;-59
2022/01/23 14:44:17;;;;;;;12.13;10.20;;;;;;;5.17;100.00;97863.47;5028577;28;105432;-57
2022/01/23 14:46:47;;;;;;;12.67;10.37;;;;;;;5.15;100.00;97874.22;5062353;27;101935;-56
2022/01/23 14:49:24;;;;;;;13.67;10.90;;;;;;;5.10;100.00;97878.38;5029593;28;102599;-58
2022/01/23 14:51:52;;;;;;;12.83;10.53;;;;;;;5.02;100.00;97881.09;5027902;28;105641;-58
2022/01/23 14:54:21;;;;;;;14.63;12.27;;;;;;;4.96;100.00;97882.63;5031740;28;102037;-57
2022/01/23 14:56:51;;;;;;;14.57;12.10;;;;;;;5.02;100.00;97889.81;5029050;28;102648;-57